createdAt,value
2018-02-09T00:02:18.437Z,100553.34
2018-02-09T00:04:45.937Z,100549.16
2018-02-09T00:07:13.553Z,100548.80
2018-02-09T00:09:41.072Z,100551.77
2018-02-09T00:12:08.549Z,100550.33
2018-02-09T00:14:36.024Z,100551.38
2018-02-09T00:17:04.401Z,100550.31
2018-02-09T00:19:31.879Z,100542.25
2018-02-09T00:21:59.374Z,100540.97
2018-02-09T00:24:26.849Z,100540.99
2018-02-09T00:26:54.364Z,100544.62
2018-02-09T00:29:21.839Z,100552.98
2018-02-09T00:31:49.349Z,100544.53
2018-02-09T00:34:16.847Z,100552.59
2018-02-09T00:36:44.330Z,100540.70
2018-02-09T00:39:11.932Z,100541.98
2018-02-09T00:41:39.400Z,100536.53
2018-02-09T00:44:06.964Z,100539.64
2018-02-09T00:46:34.436Z,100537.50
2018-02-09T00:49:01.976Z,100531.41
2018-02-09T00:51:29.448Z,100534.77
2018-02-09T00:53:56.919Z,100536.14
2018-02-09T00:56:24.556Z,100536.52
2018-02-09T00:58:52.046Z,100530.02
2018-02-09T01:01:19.537Z,100529.96
2018-02-09T01:03:47.032Z,100533.05
2018-02-09T01:06:14.516Z,100533.55
2018-02-09T01:08:41.993Z,100533.91
2018-02-09T01:11:09.547Z,100533.32
2018-02-09T01:13:37.128Z,100536.52
2018-02-09T01:16:04.688Z,100528.09
2018-02-09T01:18:32.170Z,100527.53
2018-02-09T01:20:59.736Z,100532.55
2018-02-09T01:23:27.296Z,100531.95
2018-02-09T01:25:54.773Z,100530.52
2018-02-09T01:28:22.258Z,100532.97
2018-02-09T01:30:49.716Z,100519.97
2018-02-09T01:33:17.201Z,100524.69
2018-02-09T01:35:44.754Z,100525.73
2018-02-09T01:38:12.235Z,100531.39
2018-02-09T01:40:39.791Z,100527.25
2018-02-09T01:43:07.268Z,100526.11
2018-02-09T01:45:34.841Z,100530.59
2018-02-09T01:48:02.354Z,100523.33
2018-02-09T01:50:29.828Z,100520.64
2018-02-09T01:52:57.304Z,100522.47
2018-02-09T01:55:24.798Z,100520.20
2018-02-09T01:57:52.386Z,100522.00
2018-02-09T02:00:19.884Z,100522.99
2018-02-09T02:02:47.431Z,100517.83
2018-02-09T02:05:15.009Z,100518.30
2018-02-09T02:07:42.573Z,100508.54
2018-02-09T02:10:10.230Z,100511.81
2018-02-09T02:12:37.694Z,100512.84
2018-02-09T02:15:05.190Z,100512.34
2018-02-09T02:17:32.678Z,100507.83
2018-02-09T02:20:00.154Z,100505.72
2018-02-09T02:22:27.689Z,100497.42
2018-02-09T02:24:55.170Z,100492.06
2018-02-09T02:27:22.682Z,100488.63
2018-02-09T02:29:50.157Z,100488.73
2018-02-09T02:32:17.682Z,100489.54
2018-02-09T02:34:45.186Z,100489.95
2018-02-09T02:37:12.762Z,100480.36
2018-02-09T02:39:40.334Z,100480.02
2018-02-09T02:42:07.809Z,100481.41
2018-02-09T02:44:35.357Z,100477.72
2018-02-09T02:47:03.273Z,100476.80
2018-02-09T02:49:30.738Z,100469.61
2018-02-09T02:51:58.230Z,100465.16
2018-02-09T02:54:25.704Z,100467.48
2018-02-09T02:56:53.176Z,100456.91
2018-02-09T02:59:20.642Z,100459.93
2018-02-09T03:01:48.123Z,100458.16
2018-02-09T03:04:15.607Z,100456.84
2018-02-09T03:06:43.100Z,100457.69
2018-02-09T03:09:10.602Z,100458.59
2018-02-09T03:11:38.090Z,100457.08
2018-02-09T03:14:05.558Z,100450.41
2018-02-09T03:16:33.028Z,100441.26
2018-02-09T03:19:00.530Z,100439.49
2018-02-09T03:21:27.994Z,100434.93
2018-02-09T03:23:55.467Z,100437.09
2018-02-09T03:26:23.049Z,100428.19
2018-02-09T03:28:50.640Z,100430.67
2018-02-09T03:31:18.224Z,100437.26
2018-02-09T03:33:46.516Z,100434.50
2018-02-09T03:36:13.983Z,100431.70
2018-02-09T03:38:41.456Z,100422.89
2018-02-09T03:41:08.975Z,100427.57
2018-02-09T03:43:36.470Z,100425.16
2018-02-09T03:46:03.936Z,100416.92
2018-02-09T03:48:31.412Z,100422.78
2018-02-09T03:50:58.972Z,100416.03
2018-02-09T03:53:26.447Z,100420.63
2018-02-09T03:55:53.937Z,100417.49
2018-02-09T03:58:21.469Z,100418.33
2018-02-09T04:00:49.124Z,100416.34
2018-02-09T04:03:16.612Z,100417.34
2018-02-09T04:05:45.497Z,100414.45
2018-02-09T04:08:12.982Z,100414.38
2018-02-09T04:10:40.563Z,100415.16
2018-02-09T04:13:08.055Z,100408.56
2018-02-09T04:15:35.612Z,100410.18
2018-02-09T04:18:03.111Z,100416.59
2018-02-09T04:20:30.658Z,100419.02
2018-02-09T04:22:58.211Z,100414.19
2018-02-09T04:25:25.692Z,100405.80
2018-02-09T04:27:53.178Z,100406.34
2018-02-09T04:30:20.686Z,100402.08
2018-02-09T04:32:48.157Z,100397.48
2018-02-09T04:35:15.675Z,100395.57
2018-02-09T04:37:43.173Z,100388.23
2018-02-09T04:40:10.657Z,100390.47
2018-02-09T04:42:38.191Z,100387.30
2018-02-09T04:45:05.730Z,100390.13
2018-02-09T04:47:33.201Z,100389.22
2018-02-09T04:50:00.686Z,100381.75
2018-02-09T04:52:28.145Z,100383.98
2018-02-09T04:54:55.734Z,100379.03
2018-02-09T04:57:23.240Z,100375.90
2018-02-09T04:59:50.704Z,100372.29
2018-02-09T05:02:18.243Z,100376.34
2018-02-09T05:04:45.769Z,100379.95
2018-02-09T05:07:13.362Z,100374.67
2018-02-09T05:09:40.831Z,100379.39
2018-02-09T05:12:08.328Z,100376.67
2018-02-09T05:14:35.798Z,100380.94
2018-02-09T05:17:03.903Z,100385.69
2018-02-09T05:19:31.386Z,100378.33
2018-02-09T05:21:58.864Z,100385.92
2018-02-09T05:24:26.431Z,100386.19
2018-02-09T05:26:53.913Z,100390.71
2018-02-09T05:29:21.639Z,100389.12
2018-02-09T05:31:49.161Z,100393.89
2018-02-09T05:34:16.657Z,100388.37
2018-02-09T05:36:44.161Z,100381.62
2018-02-09T05:39:11.725Z,100387.02
2018-02-09T05:41:39.289Z,100383.77
2018-02-09T05:44:06.874Z,100383.09
2018-02-09T05:46:34.442Z,100380.13
2018-02-09T05:49:02.010Z,100369.09
2018-02-09T05:51:29.497Z,100372.42
2018-02-09T05:53:57.091Z,100373.59
2018-02-09T05:56:24.581Z,100370.17
2018-02-09T05:58:52.082Z,100365.33
2018-02-09T06:01:19.665Z,100368.69
2018-02-09T06:03:47.182Z,100365.03
2018-02-09T06:06:14.682Z,100364.81
2018-02-09T06:08:42.174Z,100367.50
2018-02-09T06:11:09.645Z,100362.89
2018-02-09T06:13:37.298Z,100359.25
2018-02-09T06:16:04.790Z,100356.33
2018-02-09T06:18:32.288Z,100354.73
2018-02-09T06:20:59.768Z,100359.80
2018-02-09T06:23:27.257Z,100358.20
2018-02-09T06:25:54.725Z,100355.70
2018-02-09T06:28:22.209Z,100353.60
2018-02-09T06:30:49.684Z,100353.48
2018-02-09T06:33:17.144Z,100353.13
2018-02-09T06:35:44.618Z,100356.63
2018-02-09T06:38:12.152Z,100359.75
2018-02-09T06:40:39.668Z,100370.45
2018-02-09T06:43:07.246Z,100372.15
2018-02-09T06:45:34.754Z,100367.36
2018-02-09T06:48:02.294Z,100370.67
2018-02-09T06:50:29.783Z,100368.48
2018-02-09T06:52:57.369Z,100371.86
2018-02-09T06:55:24.851Z,100368.63
2018-02-09T06:57:52.361Z,100370.05
2018-02-09T07:00:19.855Z,100380.31
2018-02-09T07:02:47.399Z,100376.61
2018-02-09T07:05:14.899Z,100373.02
2018-02-09T07:07:42.417Z,100364.86
2018-02-09T07:10:09.960Z,100373.06
2018-02-09T07:12:37.475Z,100371.30
2018-02-09T07:15:04.991Z,100372.95
2018-02-09T07:17:32.585Z,100375.30
2018-02-09T07:20:00.088Z,100374.25
2018-02-09T07:22:34.884Z,100368.12
2018-02-09T07:25:02.406Z,100372.59
2018-02-09T07:27:29.937Z,100371.20
2018-02-09T07:29:57.442Z,100368.20
2018-02-09T07:32:24.926Z,100373.47
2018-02-09T07:34:52.463Z,100363.50
2018-02-09T07:37:19.958Z,100363.14
2018-02-09T07:39:47.511Z,100363.09
2018-02-09T07:42:15.075Z,100354.20
2018-02-09T07:44:42.569Z,100358.18
2018-02-09T07:47:10.074Z,100359.60
2018-02-09T07:49:37.627Z,100360.94
2018-02-09T07:52:05.104Z,100353.89
2018-02-09T07:54:32.582Z,100351.78
2018-02-09T07:57:00.166Z,100352.58
2018-02-09T07:59:27.629Z,100356.23
2018-02-09T08:01:55.188Z,100347.73
2018-02-09T08:04:22.650Z,100352.81
2018-02-09T08:06:50.142Z,100349.98
2018-02-09T08:09:17.644Z,100352.71
2018-02-09T08:11:45.189Z,100355.73
2018-02-09T08:14:12.784Z,100355.14
2018-02-09T08:16:40.537Z,100349.05
2018-02-09T08:19:08.021Z,100351.28
2018-02-09T08:21:35.538Z,100348.31
2018-02-09T08:24:03.398Z,100347.89
2018-02-09T08:26:30.893Z,100347.38
2018-02-09T08:28:58.391Z,100339.58
2018-02-09T08:31:25.861Z,100342.12
2018-02-09T08:33:54.047Z,100337.59
2018-02-09T08:36:21.619Z,100336.25
2018-02-09T08:38:49.187Z,100341.17
2018-02-09T08:41:16.666Z,100332.81
2018-02-09T08:43:44.209Z,100322.34
2018-02-09T08:46:11.709Z,100327.73
2018-02-09T08:48:39.157Z,100322.11
2018-02-09T08:51:06.673Z,100315.30
2018-02-09T08:53:34.152Z,100315.14
2018-02-09T08:56:02.478Z,100314.20
2018-02-09T08:58:30.006Z,100316.02
2018-02-09T09:00:57.487Z,100317.42
2018-02-09T09:03:24.984Z,100319.89
2018-02-09T09:05:52.522Z,100323.17
2018-02-09T09:08:20.075Z,100317.05
2018-02-09T09:10:47.566Z,100310.59
2018-02-09T09:13:15.047Z,100311.86
2018-02-09T09:15:42.512Z,100311.20
2018-02-09T09:18:10.008Z,100301.70
2018-02-09T09:20:37.497Z,100297.52
2018-02-09T09:23:04.965Z,100299.72
2018-02-09T09:25:32.571Z,100297.11
2018-02-09T09:28:00.142Z,100287.92
2018-02-09T09:30:27.626Z,100284.77
2018-02-09T09:32:55.183Z,100280.43
2018-02-09T09:35:22.674Z,100279.05
2018-02-09T09:37:50.138Z,100280.41
2018-02-09T09:40:17.685Z,100278.16
2018-02-09T09:42:45.156Z,100275.53
2018-02-09T09:45:12.624Z,100279.22
2018-02-09T09:47:40.206Z,100280.23
2018-02-09T09:50:07.670Z,100278.81
2018-02-09T09:52:36.721Z,100270.99
2018-02-09T09:55:04.246Z,100275.39
2018-02-09T09:57:31.819Z,100272.80
2018-02-09T09:59:59.275Z,100272.80
2018-02-09T10:02:38.786Z,100275.91
2018-02-09T10:05:06.258Z,100263.96
2018-02-09T10:07:33.757Z,100279.11
2018-02-09T10:10:01.268Z,100276.59
2018-02-09T10:12:28.827Z,100271.98
2018-02-09T10:14:56.309Z,100266.39
2018-02-09T10:17:23.877Z,100265.42
2018-02-09T10:19:51.366Z,100254.58
2018-02-09T10:22:18.949Z,100254.63
2018-02-09T10:24:46.436Z,100248.60
2018-02-09T10:27:13.919Z,100242.09
2018-02-09T10:29:41.403Z,100236.31
2018-02-09T10:32:08.874Z,100235.98
2018-02-09T10:34:36.351Z,100233.50
2018-02-09T10:37:03.831Z,100224.55
2018-02-09T10:39:31.415Z,100224.43
2018-02-09T10:41:58.888Z,100217.62
2018-02-09T10:44:26.444Z,100214.11
2018-02-09T10:46:53.931Z,100215.84
2018-02-09T10:49:21.402Z,100218.39
2018-02-09T10:51:48.946Z,100210.59
2018-02-09T10:54:16.566Z,100213.76
2018-02-09T10:56:44.103Z,100211.61
2018-02-09T10:59:11.569Z,100207.11
2018-02-09T11:01:39.134Z,100207.61
2018-02-09T11:04:06.698Z,100200.94
2018-02-09T11:06:34.205Z,100204.27
2018-02-09T11:09:01.773Z,100205.03
2018-02-09T11:11:29.533Z,100199.22
2018-02-09T11:13:57.008Z,100193.47
2018-02-09T11:16:24.476Z,100190.88
2018-02-09T11:18:51.963Z,100190.72
2018-02-09T11:21:19.433Z,100190.64
2018-02-09T11:23:46.983Z,100179.40
2018-02-09T11:26:14.465Z,100186.48
2018-02-09T11:28:42.025Z,100179.78
2018-02-09T11:31:09.497Z,100180.16
2018-02-09T11:33:36.996Z,100176.09
2018-02-09T11:36:04.555Z,100167.19
2018-02-09T11:38:32.123Z,100182.23
2018-02-09T11:40:59.621Z,100176.95
2018-02-09T11:43:27.153Z,100173.45
2018-02-09T11:45:54.615Z,100182.26
2018-02-09T11:48:22.081Z,100181.20
2018-02-09T11:50:49.569Z,100177.41
2018-02-09T11:53:17.144Z,100183.70
2018-02-09T11:55:44.703Z,100169.25
2018-02-09T11:58:12.185Z,100173.03
2018-02-09T12:00:39.668Z,100170.54
2018-02-09T12:03:07.222Z,100171.38
2018-02-09T12:05:34.802Z,100162.72
2018-02-09T12:08:02.423Z,100158.11
2018-02-09T12:10:29.941Z,100152.90
2018-02-09T12:12:57.438Z,100159.69
2018-02-09T12:15:24.915Z,100149.26
2018-02-09T12:17:52.417Z,100145.70
2018-02-09T12:20:19.890Z,100147.13
2018-02-09T12:22:47.389Z,100152.42
2018-02-09T12:25:14.972Z,100147.75
2018-02-09T12:27:42.492Z,100143.08
2018-02-09T12:30:09.995Z,100130.48
2018-02-09T12:32:37.522Z,100135.41
2018-02-09T12:35:04.980Z,100133.47
2018-02-09T12:37:32.481Z,100122.17
2018-02-09T12:39:59.974Z,100126.79
2018-02-09T12:42:27.466Z,100129.75
2018-02-09T12:44:54.955Z,100128.43
2018-02-09T12:47:22.436Z,100123.63
2018-02-09T12:49:49.973Z,100122.25
2018-02-09T12:52:17.500Z,100118.45
2018-02-09T12:54:44.980Z,100116.19
2018-02-09T12:57:12.467Z,100121.71
2018-02-09T12:59:39.946Z,100121.09
2018-02-09T13:02:07.454Z,100112.69
2018-02-09T13:04:35.009Z,100103.75
2018-02-09T13:07:02.579Z,100112.92
2018-02-09T13:09:30.130Z,100112.84
2018-02-09T13:11:57.610Z,100098.89
2018-02-09T13:14:36.997Z,100107.05
2018-02-09T13:17:04.553Z,100108.84
2018-02-09T13:19:32.029Z,100097.69
2018-02-09T13:21:59.580Z,100099.55
2018-02-09T13:24:27.899Z,100088.23
2018-02-09T13:26:55.389Z,100089.86
2018-02-09T13:29:22.865Z,100096.09
2018-02-09T13:31:50.355Z,100093.21
2018-02-09T13:34:17.853Z,100089.48
2018-02-09T13:39:59.179Z,100087.60
2018-02-09T13:42:26.701Z,100086.03
2018-02-09T13:44:54.165Z,100086.69
2018-02-09T13:47:21.686Z,100089.31
2018-02-09T13:49:49.179Z,100088.49
2018-02-09T13:52:16.658Z,100082.59
2018-02-09T13:54:44.170Z,100085.63
2018-02-09T13:57:11.686Z,100083.00
2018-02-09T13:59:39.167Z,100080.58
2018-02-09T14:02:06.649Z,100080.75
2018-02-09T14:04:34.113Z,100080.75
2018-02-09T14:07:01.709Z,100080.09
2018-02-09T14:09:29.194Z,100083.30
2018-02-09T14:11:56.704Z,100082.58
2018-02-09T14:14:24.193Z,100072.02
2018-02-09T14:16:51.726Z,100072.33
2018-02-09T14:19:19.218Z,100069.31
2018-02-09T14:21:46.684Z,100064.77
2018-02-09T14:24:14.215Z,100058.95
2018-02-09T14:26:41.692Z,100056.05
2018-02-09T14:29:09.176Z,100053.14
2018-02-09T14:31:36.640Z,100048.91
2018-02-09T14:34:04.154Z,100051.66
2018-02-09T14:36:31.616Z,100051.04
2018-02-09T14:38:59.108Z,100047.75
2018-02-09T14:41:26.661Z,100045.25
2018-02-09T14:43:54.188Z,100042.12
2018-02-09T14:46:21.783Z,100040.86
2018-02-09T14:48:49.261Z,100038.78
2018-02-09T14:51:16.731Z,100044.91
2018-02-09T14:53:44.236Z,100043.05
2018-02-09T14:56:11.720Z,100041.67
2018-02-09T14:58:39.196Z,100041.17
2018-02-09T15:01:06.686Z,100041.43
2018-02-09T15:03:34.157Z,100039.70
2018-02-09T15:06:02.125Z,100036.63
2018-02-09T15:08:29.600Z,100039.20
2018-02-09T15:10:57.428Z,100042.17
2018-02-09T15:13:24.991Z,100045.76
2018-02-09T15:15:52.493Z,100045.75
2018-02-09T15:18:19.971Z,100044.66
2018-02-09T15:20:47.442Z,100051.05
2018-02-09T15:23:14.931Z,100048.03
2018-02-09T15:25:42.418Z,100048.19
2018-02-09T15:28:09.886Z,100055.59
2018-02-09T15:30:37.358Z,100054.86
2018-02-09T15:33:04.863Z,100055.73
2018-02-09T15:35:32.396Z,100054.45
2018-02-09T15:37:59.862Z,100058.73
2018-02-09T15:40:27.376Z,100063.61
2018-02-09T15:42:54.864Z,100063.84
2018-02-09T15:45:22.381Z,100061.70
2018-02-09T15:47:49.897Z,100064.31
2018-02-09T15:50:17.377Z,100057.14
2018-02-09T15:52:44.910Z,100060.27
2018-02-09T15:55:12.436Z,100055.97
2018-02-09T15:57:39.949Z,100056.81
2018-02-09T16:00:07.390Z,100068.06
2018-02-09T16:02:34.932Z,100057.58
2018-02-09T16:05:02.433Z,100059.13
2018-02-09T16:07:29.907Z,100066.24
2018-02-09T16:09:57.377Z,100072.02
2018-02-09T16:12:24.892Z,100068.31
2018-02-09T16:14:52.353Z,100072.00
2018-02-09T16:17:19.835Z,100079.53
2018-02-09T16:19:47.307Z,100082.03
2018-02-09T16:22:14.822Z,100081.05
2018-02-09T16:24:42.306Z,100081.72
2018-02-09T16:27:09.779Z,100076.81
2018-02-09T16:29:37.268Z,100081.63
2018-02-09T16:32:04.732Z,100078.89
2018-02-09T16:34:32.209Z,100078.98
2018-02-09T16:36:59.662Z,100081.84
2018-02-09T16:39:27.147Z,100089.74
2018-02-09T16:41:54.648Z,100087.80
2018-02-09T16:44:22.456Z,100084.14
2018-02-09T16:46:49.919Z,100086.09
2018-02-09T16:49:17.405Z,100090.17
2018-02-09T16:51:44.880Z,100092.69
2018-02-09T16:54:12.348Z,100090.78
2018-02-09T16:56:39.913Z,100090.70
2018-02-09T16:59:07.524Z,100093.58
2018-02-09T17:01:35.016Z,100103.12
2018-02-09T17:04:02.532Z,100094.73
2018-02-09T17:06:30.025Z,100094.94
2018-02-09T17:08:57.505Z,100097.42
2018-02-09T17:11:25.043Z,100095.53
2018-02-09T17:13:52.539Z,100101.70
2018-02-09T17:16:20.019Z,100101.89
2018-02-09T17:18:47.555Z,100099.70
2018-02-09T17:21:15.047Z,100104.25
2018-02-09T17:23:42.562Z,100105.02
2018-02-09T17:26:10.080Z,100107.48
2018-02-09T17:28:37.574Z,100098.25
2018-02-09T17:31:05.037Z,100104.53
2018-02-09T17:33:40.511Z,100104.05
2018-02-09T17:36:08.057Z,100109.36
2018-02-09T17:38:35.533Z,100111.00
2018-02-09T17:41:03.009Z,100108.36
2018-02-09T17:43:30.494Z,100108.83
2018-02-09T17:45:57.985Z,100112.50
2018-02-09T17:48:25.478Z,100107.54
2018-02-09T17:50:52.968Z,100103.36
2018-02-09T17:53:20.438Z,100109.86
2018-02-09T17:55:47.932Z,100110.14
2018-02-09T17:58:15.407Z,100104.55
2018-02-09T18:00:42.916Z,100112.58
2018-02-09T18:03:10.389Z,100113.25
2018-02-09T18:05:37.884Z,100118.55
2018-02-09T18:08:05.358Z,100112.78
2018-02-09T18:10:32.814Z,100113.84
2018-02-09T18:13:00.299Z,100111.92
2018-02-09T18:15:27.794Z,100113.22
2018-02-09T18:17:55.286Z,100112.13
2018-02-09T18:20:22.750Z,100118.23
2018-02-09T18:22:50.268Z,100121.49
2018-02-09T18:25:17.756Z,100120.12
2018-02-09T18:27:45.217Z,100117.70
2018-02-09T18:30:12.721Z,100114.78
2018-02-09T18:32:40.214Z,100110.74
2018-02-09T18:35:07.770Z,100115.01
2018-02-09T18:37:35.308Z,100123.54
2018-02-09T18:40:02.801Z,100124.16
2018-02-09T18:42:30.258Z,100120.50
2018-02-09T18:44:57.788Z,100121.44
2018-02-09T18:47:25.265Z,100122.27
2018-02-09T18:49:52.737Z,100129.77
2018-02-09T18:52:20.249Z,100123.99
2018-02-09T18:54:47.727Z,100125.05
2018-02-09T18:57:15.244Z,100123.01
2018-02-09T18:59:42.761Z,100118.95
2018-02-09T19:02:10.244Z,100121.67
2018-02-09T19:04:37.725Z,100120.25
2018-02-09T19:07:05.260Z,100124.69
2018-02-09T19:09:32.742Z,100126.23
2018-02-09T19:12:00.223Z,100123.99
2018-02-09T19:14:27.700Z,100127.25
2018-02-09T19:16:55.188Z,100126.95
2018-02-09T19:19:22.682Z,100127.06
2018-02-09T19:21:50.180Z,100134.36
2018-02-09T19:24:17.729Z,100133.45
2018-02-09T19:26:45.334Z,100134.56
2018-02-09T19:29:12.824Z,100131.84
2018-02-09T19:31:40.485Z,100132.97
2018-02-09T19:34:07.987Z,100133.59
2018-02-09T19:36:35.455Z,100133.09
2018-02-09T19:39:02.936Z,100137.77
2018-02-09T19:41:30.448Z,100147.60
2018-02-09T19:43:57.923Z,100146.58
2018-02-09T19:46:25.409Z,100145.78
2018-02-09T19:48:52.902Z,100150.95
2018-02-09T19:51:20.391Z,100153.34
2018-02-09T19:53:47.874Z,100150.52
2018-02-09T19:56:15.349Z,100152.13
2018-02-09T19:58:47.251Z,100151.12
2018-02-09T20:01:14.778Z,100154.88
2018-02-09T20:03:42.266Z,100155.27
2018-02-09T20:06:09.842Z,100154.66
2018-02-09T20:08:37.421Z,100148.79
2018-02-09T20:11:05.395Z,100152.85
2018-02-09T20:13:32.954Z,100156.06
2018-02-09T20:16:00.431Z,100157.06
2018-02-09T20:18:27.938Z,100158.47
2018-02-09T20:20:55.424Z,100162.92
2018-02-09T20:23:22.912Z,100162.09
2018-02-09T20:25:50.420Z,100163.02
2018-02-09T20:28:17.896Z,100166.04
2018-02-09T20:30:45.456Z,100160.17
2018-02-09T20:33:12.954Z,100168.56
2018-02-09T20:35:40.480Z,100165.75
2018-02-09T20:38:07.978Z,100166.63
2018-02-09T20:40:35.526Z,100162.82
2018-02-09T20:43:03.149Z,100163.12
2018-02-09T20:45:30.667Z,100165.73
2018-02-09T20:47:58.152Z,100164.53
2018-02-09T20:50:25.663Z,100161.61
2018-02-09T20:52:53.132Z,100158.47
2018-02-09T20:55:20.699Z,100158.57
2018-02-09T20:57:48.204Z,100154.54
2018-02-09T21:00:15.681Z,100153.95
2018-02-09T21:02:43.205Z,100152.11
2018-02-09T21:05:10.738Z,100154.72
2018-02-09T21:07:38.235Z,100156.02
2018-02-09T21:10:05.792Z,100155.42
2018-02-09T21:12:33.318Z,100153.88
2018-02-09T21:15:00.892Z,100153.74
2018-02-09T21:17:28.411Z,100151.01
2018-02-09T21:19:56.319Z,100152.43
2018-02-09T21:22:23.851Z,100153.74
2018-02-09T21:24:51.422Z,100148.09
2018-02-09T21:27:18.995Z,100148.68
2018-02-09T21:29:46.583Z,100149.30
2018-02-09T21:32:14.046Z,100160.91
2018-02-09T21:34:41.508Z,100155.44
2018-02-09T21:37:09.136Z,100154.66
2018-02-09T21:39:36.605Z,100147.47
2018-02-09T21:42:04.117Z,100151.01
2018-02-09T21:44:31.607Z,100149.99
2018-02-09T21:46:59.165Z,100156.56
2018-02-09T21:49:26.644Z,100157.26
2018-02-09T21:51:54.157Z,100150.77
2018-02-09T21:54:21.625Z,100155.77
2018-02-09T21:56:49.166Z,100157.89
2018-02-09T21:59:16.701Z,100160.41
2018-02-09T22:01:44.188Z,100162.92
2018-02-09T22:04:11.672Z,100156.55
2018-02-09T22:06:39.132Z,100163.95
2018-02-09T22:09:06.626Z,100161.72
2018-02-09T22:11:34.106Z,100169.89
2018-02-09T22:14:01.587Z,100161.06
2018-02-09T22:16:29.049Z,100160.08
2018-02-09T22:18:56.516Z,100165.73
2018-02-09T22:21:24.046Z,100163.51
2018-02-09T22:23:52.413Z,100164.12
2018-02-09T22:26:20.008Z,100155.02
2018-02-09T22:28:47.574Z,100155.92
2018-02-09T22:31:15.152Z,100157.34
2018-02-09T22:33:42.728Z,100161.28
2018-02-09T22:36:10.233Z,100157.20
2018-02-09T22:38:37.722Z,100160.17
2018-02-09T22:41:05.192Z,100166.63
2018-02-09T22:43:32.698Z,100162.14
2018-02-09T22:46:00.174Z,100165.38
2018-02-09T22:48:27.663Z,100172.23
2018-02-09T22:50:55.123Z,100173.84
2018-02-09T22:53:22.596Z,100168.29
2018-02-09T22:55:50.068Z,100166.69
2018-02-09T22:58:17.608Z,100165.63
2018-02-09T23:00:45.069Z,100170.41
2018-02-09T23:03:12.586Z,100177.03
2018-02-09T23:05:40.078Z,100173.61
2018-02-09T23:08:07.613Z,100169.27
2018-02-09T23:10:35.270Z,100175.14
2018-02-09T23:13:02.851Z,100176.13
2018-02-09T23:15:31.234Z,100176.92
2018-02-09T23:17:58.698Z,100179.25
2018-02-09T23:20:26.236Z,100179.02
2018-02-09T23:22:53.699Z,100176.11
2018-02-09T23:25:21.234Z,100183.08
2018-02-09T23:27:48.796Z,100176.41
2018-02-09T23:30:19.209Z,100178.78
2018-02-09T23:32:46.809Z,100180.11
2018-02-09T23:35:14.281Z,100187.81
2018-02-09T23:37:41.848Z,100177.64
2018-02-09T23:40:09.325Z,100178.66
2018-02-09T23:42:36.879Z,100175.06
2018-02-09T23:45:04.338Z,100179.63
2018-02-09T23:47:31.932Z,100181.49
2018-02-09T23:49:59.408Z,100185.14
2018-02-09T23:52:26.889Z,100182.18
2018-02-09T23:54:54.445Z,100186.27
2018-02-09T23:57:22.009Z,100182.14
2018-02-09T23:59:49.590Z,100181.27
